Time;durP1;ratioP1;P1;durP2;ratioP2;P2;SDS_P1;SDS_P2;PMS_P1;PMS_P2;Temp;Humidity;BMP_temperature;BMP_pressure;BME280_temperature;BME280_humidity;BME280_pressure;Samples;Min_cycle;Max_cycle;Signal;HPM_P1;HPM_P2
2023/02/05 00:02:07;;;;;;;;;;;;;;;2.03;71.37;98631.88;6257769;23;19922;-81
2023/02/05 00:04:35;;;;;;;;;;;;;;;2.04;70.62;98635.28;6256677;23;19916;-82
2023/02/05 00:07:02;;;;;;;;;;;;;;;1.97;70.22;98626.22;6256751;23;19916;-82
2023/02/05 00:09:30;;;;;;;;;;;;;;;1.96;71.12;98622.78;6256107;23;19994;-82
2023/02/05 00:11:58;;;;;;;;;;;;;;;1.99;71.29;98620.06;6256943;23;19995;-80
2023/02/05 00:14:26;;;;;;;;;;;;;;;2.01;70.06;98631.13;6255410;23;19946;-80
2023/02/05 00:16:54;;;;;;;;;;;;;;;1.97;69.29;98626.22;6255405;23;19964;-84
2023/02/05 00:19:21;;;;;;;;;;;;;;;1.91;68.66;98616.22;6255537;23;19963;-84
2023/02/05 00:21:48;;;;;;;;;;;;;;;1.84;68.77;98615.69;6256883;23;20306;-82
2023/02/05 00:24:16;;;;;;;;;;;;;;;1.78;69.57;98616.00;6257985;23;19919;-83
2023/02/05 00:26:43;;;;;;;;;;;;;;;1.75;69.83;98608.41;6256947;23;20259;-81
2023/02/05 00:29:12;;;;;;;;;;;;;;;1.74;69.47;98611.91;6256612;23;19955;-81
2023/02/05 00:31:40;;;;;;;;;;;;;;;1.73;69.76;98607.66;6255575;23;19915;-84
2023/02/05 00:34:07;;;;;;;;;;;;;;;1.72;69.72;98614.56;6256671;23;20327;-82
2023/02/05 00:36:35;;;;;;;;;;;;;;;1.73;69.43;98602.50;6240498;22;20382;-77
2023/02/05 00:39:02;;;;;;;;;;;;;;;1.70;68.79;98600.94;6214070;23;19916;-78
2023/02/05 00:41:29;;;;;;;;;;;;;;;1.67;68.87;98597.69;6215439;23;19939;-78
2023/02/05 00:43:57;;;;;;;;;;;;;;;1.59;69.10;98605.78;6215423;23;19922;-79
2023/02/05 00:46:26;;;;;;;;;;;;;;;1.55;68.70;98599.97;6222553;23;19998;-78
2023/02/05 00:48:53;;;;;;;;;;;;;;;1.49;68.75;98595.13;6245070;23;19915;-78
2023/02/05 00:51:21;;;;;;;;;;;;;;;1.41;69.11;98599.81;6245599;23;19986;-78
2023/02/05 00:53:48;;;;;;;;;;;;;;;1.34;68.85;98606.16;6245133;23;19994;-81
2023/02/05 00:56:16;;;;;;;;;;;;;;;1.27;69.11;98607.34;6245383;23;20384;-79
2023/02/05 00:58:46;;;;;;;;;;;;;;;1.20;69.38;98617.09;6244815;23;20355;-79
2023/02/05 01:01:14;;;;;;;;;;;;;;;1.16;70.36;98613.88;6245989;23;19939;-78
2023/02/05 01:03:43;;;;;;;;;;;;;;;1.17;70.35;98619.84;6245803;23;19919;-77
2023/02/05 01:06:10;;;;;;;;;;;;;;;1.16;71.39;98615.56;6245874;23;19939;-78
2023/02/05 01:08:38;;;;;;;;;;;;;;;1.20;72.55;98619.66;6244964;23;19919;-77
2023/02/05 01:11:06;;;;;;;;;;;;;;;1.23;73.20;98619.53;6246471;23;20114;-78
2023/02/05 01:13:33;;;;;;;;;;;;;;;1.25;72.01;98617.72;6246078;23;20423;-79
2023/02/05 01:16:01;;;;;;;;;;;;;;;1.22;71.85;98616.16;6245465;23;19915;-77
2023/02/05 01:18:28;;;;;;;;;;;;;;;1.23;72.26;98607.50;6244382;23;19921;-80
2023/02/05 01:20:58;;;;;;;;;;;;;;;1.27;71.83;98612.50;6245942;23;19922;-78
2023/02/05 01:23:25;;;;;;;;;;;;;;;1.27;71.28;98604.78;6245719;23;20259;-80
2023/02/05 01:25:52;;;;;;;;;;;;;;;1.26;71.29;98611.66;6245485;23;19915;-78
2023/02/05 01:28:20;;;;;;;;;;;;;;;1.27;71.62;98609.94;6244856;23;19923;-78
2023/02/05 01:30:47;;;;;;;;;;;;;;;1.32;72.23;98613.13;6245646;23;19916;-78
2023/02/05 01:33:15;;;;;;;;;;;;;;;1.35;72.57;98603.50;6245764;23;19997;-77
2023/02/05 01:35:43;;;;;;;;;;;;;;;1.43;71.86;98606.53;6245421;23;19999;-78
2023/02/05 01:38:12;;;;;;;;;;;;;;;1.49;71.11;98590.00;6244382;23;20336;-78
2023/02/05 01:40:40;;;;;;;;;;;;;;;1.52;70.80;98586.44;6246311;23;19916;-77
2023/02/05 01:43:11;;;;;;;;;;;;;;;1.53;70.23;98582.94;6246196;23;20290;-77
2023/02/05 01:45:49;;;;;;;;;;;;;;;1.48;69.82;98582.34;6245892;23;19915;-77
2023/02/05 01:48:20;;;;;;;;;;;;;;;1.38;69.75;98576.84;6246079;23;19916;-81
2023/02/05 01:50:50;;;;;;;;;;;;;;;1.27;70.14;98568.78;6249233;23;20263;-76
2023/02/05 01:53:21;;;;;;;;;;;;;;;1.23;70.55;98579.22;6248514;23;19923;-76
2023/02/05 01:55:59;;;;;;;;;;;;;;;1.19;70.36;98572.56;6248974;23;19916;-76
2023/02/05 01:58:27;;;;;;;;;;;;;;;1.16;69.87;98571.88;6248179;23;19974;-76
2023/02/05 02:00:55;;;;;;;;;;;;;;;1.12;69.96;98575.53;6248493;23;19922;-76
2023/02/05 02:03:24;;;;;;;;;;;;;;;1.08;69.94;98574.00;6248836;23;19916;-76
2023/02/05 02:05:52;;;;;;;;;;;;;;;1.00;69.67;98566.66;6248221;23;20340;-76
2023/02/05 02:08:20;;;;;;;;;;;;;;;0.93;70.01;98555.00;6247647;23;19915;-77
2023/02/05 02:10:48;;;;;;;;;;;;;;;0.87;70.08;98563.84;6248647;23;19916;-77
2023/02/05 02:13:18;;;;;;;;;;;;;;;0.86;69.80;98556.22;6248894;23;19919;-77
2023/02/05 02:15:46;;;;;;;;;;;;;;;0.82;70.03;98553.78;6247179;23;19915;-76
2023/02/05 02:18:26;;;;;;;;;;;;;;;0.77;70.40;98553.16;6246147;23;19916;-77
2023/02/05 02:21:04;;;;;;;;;;;;;;;0.75;70.49;98554.16;6254079;23;20131;-77
2023/02/05 02:23:39;;;;;;;;;;;;;;;0.75;70.26;98546.44;6271793;23;19916;-76
2023/02/05 02:26:15;;;;;;;;;;;;;;;0.71;70.12;98539.78;6271882;23;19959;-76
2023/02/05 02:28:45;;;;;;;;;;;;;;;0.63;70.00;98532.44;6249182;23;20336;-76
2023/02/05 02:31:17;;;;;;;;;;;;;;;0.58;70.36;98529.25;6249008;23;19916;-76
2023/02/05 02:33:47;;;;;;;;;;;;;;;0.59;70.90;98523.19;6248612;23;19915;-76
2023/02/05 02:36:19;;;;;;;;;;;;;;;0.61;70.70;98523.97;6247017;23;19967;-76
2023/02/05 02:38:50;;;;;;;;;;;;;;;0.62;70.86;98528.22;6246410;23;19967;-76
2023/02/05 02:41:19;;;;;;;;;;;;;;;0.59;70.47;98515.50;6246929;23;20370;-76
2023/02/05 02:43:50;;;;;;;;;;;;;;;0.58;70.49;98516.41;6249856;23;19962;-77
2023/02/05 02:46:20;;;;;;;;;;;;;;;0.54;70.06;98520.84;6268796;23;19915;-76
2023/02/05 02:48:50;;;;;;;;;;;;;;;0.51;70.44;98520.19;6260517;23;19991;-77
2023/02/05 02:51:20;;;;;;;;;;;;;;;0.49;70.39;98519.41;6248086;23;19942;-76
2023/02/05 02:53:49;;;;;;;;;;;;;;;0.47;70.45;98521.22;6247269;23;19919;-76
2023/02/05 02:56:17;;;;;;;;;;;;;;;0.47;70.40;98516.09;6250436;23;19915;-77
2023/02/05 02:58:46;;;;;;;;;;;;;;;0.47;70.42;98510.94;6271720;23;19916;-78
2023/02/05 03:01:17;;;;;;;;;;;;;;;0.46;70.75;98509.28;6271808;23;19930;-78
2023/02/05 03:03:50;;;;;;;;;;;;;;;0.41;70.28;98517.19;6256561;23;19916;-84
2023/02/05 03:06:18;;;;;;;;;;;;;;;0.35;70.43;98515.75;6251117;23;19915;-85
2023/02/05 03:08:50;;;;;;;;;;;;;;;0.32;70.98;98513.31;6251017;23;19922;-83
2023/02/05 03:11:17;;;;;;;;;;;;;;;0.30;70.76;98512.53;6249654;23;19922;-82
2023/02/05 03:13:45;;;;;;;;;;;;;;;0.26;70.68;98511.03;6254913;23;19922;-83
2023/02/05 03:16:14;;;;;;;;;;;;;;;0.27;71.20;98511.88;6248640;23;19919;-78
2023/02/05 03:18:43;;;;;;;;;;;;;;;0.27;70.78;98512.69;6245569;23;20393;-80
2023/02/05 03:21:13;;;;;;;;;;;;;;;0.28;70.85;98503.25;6247131;23;19915;-82
2023/02/05 03:23:40;;;;;;;;;;;;;;;0.26;70.58;98507.63;6247249;23;20002;-79
2023/02/05 03:26:21;;;;;;;;;;;;;;;0.22;70.58;98501.81;6247135;23;19954;-83
2023/02/05 03:28:49;;;;;;;;;;;;;;;0.19;71.11;98496.81;6246227;23;19926;-77
2023/02/05 03:31:18;;;;;;;;;;;;;;;0.17;71.26;98507.13;6246917;23;20237;-81
2023/02/05 03:33:55;;;;;;;;;;;;;;;0.21;71.02;98500.16;6246386;23;19916;-79
2023/02/05 03:36:25;;;;;;;;;;;;;;;0.22;70.79;98496.69;6246618;23;19938;-79
2023/02/05 03:39:13;;;;;;;;;;;;;;;0.19;70.87;98492.50;6245166;23;19934;-79
2023/02/05 03:41:56;;;;;;;;;;;;;;;0.23;71.27;98493.22;6246505;23;20002;-80
2023/02/05 03:44:28;;;;;;;;;;;;;;;0.22;70.78;98491.56;6246130;23;19922;-81
2023/02/05 03:46:59;;;;;;;;;;;;;;;0.18;71.03;98483.16;6246602;23;19915;-80
2023/02/05 03:49:35;;;;;;;;;;;;;;;0.17;71.46;98486.59;6245792;23;19915;-84
2023/02/05 03:52:05;;;;;;;;;;;;;;;0.21;71.46;98482.19;6246646;23;19919;-78
2023/02/05 03:54:34;;;;;;;;;;;;;;;0.21;71.20;98482.19;6246183;23;19915;-79
2023/02/05 03:57:03;;;;;;;;;;;;;;;0.25;71.42;98480.31;6245848;23;19916;-76
2023/02/05 03:59:31;;;;;;;;;;;;;;;0.27;71.45;98484.47;6245398;23;19915;-82
2023/02/05 04:01:59;;;;;;;;;;;;;;;0.30;71.48;98480.91;6247558;23;19934;-83
2023/02/05 04:04:27;;;;;;;;;;;;;;;0.32;70.79;98469.66;6260924;23;19915;-78
2023/02/05 04:06:55;;;;;;;;;;;;;;;0.33;71.29;98463.66;6261409;23;19978;-80
2023/02/05 04:09:23;;;;;;;;;;;;;;;0.33;70.90;98471.34;6251004;23;20295;-76
2023/02/05 04:11:50;;;;;;;;;;;;;;;0.36;71.07;98483.22;6246245;23;20295;-77
2023/02/05 04:14:18;;;;;;;;;;;;;;;0.37;70.77;98482.28;6245934;23;19998;-81
2023/02/05 04:16:45;;;;;;;;;;;;;;;0.34;70.89;98488.41;6246555;23;19987;-77
2023/02/05 04:19:12;;;;;;;;;;;;;;;0.36;71.02;98484.03;6246789;23;20044;-79
2023/02/05 04:21:40;;;;;;;;;;;;;;;0.41;71.22;98486.38;6247338;23;19923;-77
2023/02/05 04:24:09;;;;;;;;;;;;;;;0.40;70.83;98475.28;6246729;23;19915;-77
2023/02/05 04:26:36;;;;;;;;;;;;;;;0.39;70.51;98463.38;6246836;23;19923;-77
2023/02/05 04:29:04;;;;;;;;;;;;;;;0.34;70.16;98467.03;6245526;23;20229;-77
2023/02/05 04:31:31;;;;;;;;;;;;;;;0.29;71.04;98466.44;6246312;23;19994;-83
2023/02/05 04:33:59;;;;;;;;;;;;;;;0.27;71.01;98463.94;6247099;23;19950;-76
2023/02/05 04:36:26;;;;;;;;;;;;;;;0.30;71.37;98458.66;6246085;23;19943;-80
2023/02/05 04:38:53;;;;;;;;;;;;;;;0.32;70.85;98467.09;6245769;23;20255;-77
2023/02/05 04:41:22;;;;;;;;;;;;;;;0.33;70.53;98473.91;6246651;23;19915;-82
2023/02/05 04:43:50;;;;;;;;;;;;;;;0.29;70.57;98474.13;6246205;23;20371;-76
2023/02/05 04:46:17;;;;;;;;;;;;;;;0.27;70.73;98474.19;6246393;23;20244;-78
2023/02/05 04:48:45;;;;;;;;;;;;;;;0.25;71.02;98478.56;6245661;23;19922;-77
2023/02/05 04:51:13;;;;;;;;;;;;;;;0.24;71.03;98466.66;6246072;23;19922;-77
2023/02/05 04:53:41;;;;;;;;;;;;;;;0.25;71.33;98472.63;6246044;23;19916;-78
2023/02/05 04:56:09;;;;;;;;;;;;;;;0.27;71.00;98474.19;6245697;23;19998;-78
2023/02/05 04:58:39;;;;;;;;;;;;;;;0.30;71.07;98476.63;6244792;23;19915;-76
2023/02/05 05:01:10;;;;;;;;;;;;;;;0.32;70.92;98471.41;6245543;23;19998;-78
2023/02/05 05:03:38;;;;;;;;;;;;;;;0.33;71.27;98473.09;6245645;23;19942;-76
2023/02/05 05:06:06;;;;;;;;;;;;;;;0.39;72.32;98468.50;6246132;23;19938;-76
2023/02/05 05:08:33;;;;;;;;;;;;;;;0.48;72.27;98463.81;6244712;23;19954;-77
2023/02/05 05:11:05;;;;;;;;;;;;;;;0.54;71.52;98468.66;6245101;23;19950;-77
2023/02/05 05:13:33;;;;;;;;;;;;;;;0.54;71.30;98463.53;6245724;23;20295;-77
2023/02/05 05:16:02;;;;;;;;;;;;;;;0.55;70.92;98467.78;6245205;23;20414;-77
2023/02/05 05:18:29;;;;;;;;;;;;;;;0.54;71.03;98466.91;6244169;23;20339;-76
2023/02/05 05:20:57;;;;;;;;;;;;;;;0.55;70.79;98472.91;6245187;23;19938;-77
2023/02/05 05:23:24;;;;;;;;;;;;;;;0.56;71.39;98470.25;6246066;23;19916;-78
2023/02/05 05:25:51;;;;;;;;;;;;;;;0.61;70.85;98473.44;6246173;23;20336;-75
2023/02/05 05:28:19;;;;;;;;;;;;;;;0.65;71.42;98468.97;6246689;23;20002;-77
2023/02/05 05:30:47;;;;;;;;;;;;;;;0.63;70.77;98470.78;6247255;23;19961;-77
2023/02/05 05:33:15;;;;;;;;;;;;;;;0.61;70.88;98470.03;6253955;23;19922;-77
2023/02/05 05:35:43;;;;;;;;;;;;;;;0.58;70.53;98473.56;6254908;23;20423;-78
2023/02/05 05:38:11;;;;;;;;;;;;;;;0.57;70.91;98478.81;6248851;23;19924;-76
2023/02/05 05:46:09;;;;;;;;;;;;;;;0.49;71.20;98486.03;6247737;23;19958;-77
2023/02/05 05:48:38;;;;;;;;;;;;;;;0.48;71.39;98480.06;6246996;23;19922;-77
2023/02/05 05:51:05;;;;;;;;;;;;;;;0.50;71.43;98478.25;6247809;23;20324;-75
2023/02/05 05:53:33;;;;;;;;;;;;;;;0.57;71.85;98476.25;6247985;23;20254;-77
2023/02/05 05:56:00;;;;;;;;;;;;;;;0.63;72.15;98475.09;6247048;23;20083;-76
2023/02/05 05:58:27;;;;;;;;;;;;;;;0.67;71.62;98476.63;6247424;23;19916;-79
2023/02/05 06:00:55;;;;;;;;;;;;;;;0.70;71.32;98472.19;6248150;23;19923;-76
2023/02/05 06:03:22;;;;;;;;;;;;;;;0.71;71.81;98475.56;6249465;23;19947;-76
2023/02/05 06:05:51;;;;;;;;;;;;;;;0.75;71.95;98480.47;6263300;23;19957;-78
2023/02/05 06:08:23;;;;;;;;;;;;;;;0.76;71.29;98482.13;6269188;23;19939;-79
2023/02/05 06:10:50;;;;;;;;;;;;;;;0.77;71.05;98485.56;6263822;23;19916;-76
2023/02/05 06:13:17;;;;;;;;;;;;;;;0.76;71.42;98477.00;6250373;23;19916;-76
2023/02/05 06:15:46;;;;;;;;;;;;;;;0.81;72.46;98469.09;6247428;23;19922;-75
2023/02/05 06:18:13;;;;;;;;;;;;;;;0.86;72.07;98468.88;6246625;23;19919;-76
2023/02/05 06:20:41;;;;;;;;;;;;;;;0.88;71.73;98469.63;6247572;23;20247;-76
2023/02/05 06:23:10;;;;;;;;;;;;;;;0.91;71.89;98469.47;6248208;23;19921;-75
2023/02/05 06:25:37;;;;;;;;;;;;;;;0.93;71.56;98471.03;6247949;23;19922;-76
2023/02/05 06:28:05;;;;;;;;;;;;;;;0.94;71.72;98469.28;6246172;23;19916;-76
2023/02/05 06:30:32;;;;;;;;;;;;;;;0.93;71.11;98467.66;6261552;23;19919;-76
2023/02/05 06:32:59;;;;;;;;;;;;;;;0.92;71.05;98476.25;6263973;23;20237;-76
2023/02/05 06:35:27;;;;;;;;;;;;;;;0.93;71.32;98467.66;6257629;23;19990;-77
2023/02/05 06:37:54;;;;;;;;;;;;;;;0.93;71.18;98468.47;6232757;22;19915;-76
2023/02/05 06:40:24;;;;;;;;;;;;;;;0.96;71.35;98465.78;6217874;23;19916;-75
2023/02/05 06:42:52;;;;;;;;;;;;;;;0.98;71.15;98456.25;6218018;23;19915;-76
2023/02/05 06:45:19;;;;;;;;;;;;;;;1.03;72.21;98458.59;6217085;23;19947;-75
2023/02/05 06:47:47;;;;;;;;;;;;;;;1.07;72.94;98461.81;6216495;23;19990;-76
2023/02/05 06:50:14;;;;;;;;;;;;;;;1.14;73.81;98461.44;6217169;23;19916;-76
2023/02/05 06:52:42;;;;;;;;;;;;;;;1.17;72.47;98463.03;6217196;23;19998;-76
2023/02/05 06:55:09;;;;;;;;;;;;;;;1.23;72.20;98455.00;6216734;23;20500;-75
2023/02/05 06:57:38;;;;;;;;;;;;;;;1.22;71.32;98461.03;6216698;23;19915;-75
2023/02/05 07:00:06;;;;;;;;;;;;;;;1.22;71.52;98458.47;6215771;23;19915;-76
2023/02/05 07:02:33;;;;;;;;;;;;;;;1.22;71.51;98454.19;6216849;23;20018;-76
2023/02/05 07:05:01;;;;;;;;;;;;;;;1.26;71.56;98459.97;6216859;23;19920;-75
2023/02/05 07:07:28;;;;;;;;;;;;;;;1.31;71.94;98467.47;6217405;23;19916;-75
2023/02/05 07:09:55;;;;;;;;;;;;;;;1.34;71.33;98462.19;6216347;23;19916;-76
2023/02/05 07:12:23;;;;;;;;;;;;;;;1.38;71.54;98463.69;6217937;23;19990;-78
2023/02/05 07:14:52;;;;;;;;;;;;;;;1.40;71.33;98462.69;6217528;23;20319;-78
2023/02/05 07:17:19;;;;;;;;;;;;;;;1.43;71.68;98461.72;6217401;23;20348;-78
2023/02/05 07:19:47;;;;;;;;;;;;;;;1.47;72.05;98467.53;6215000;23;19916;-76
2023/02/05 07:22:15;;;;;;;;;;;;;;;1.50;71.72;98459.66;6217055;23;20376;-76
2023/02/05 07:24:42;;;;;;;;;;;;;;;1.52;71.04;98465.53;6217090;23;20311;-76
2023/02/05 07:27:09;;;;;;;;;;;;;;;1.51;70.76;98464.72;6214232;23;19922;-77
2023/02/05 07:29:37;;;;;;;;;;;;;;;1.50;70.38;98468.19;6215448;23;19922;-76
2023/02/05 07:32:06;;;;;;;;;;;;;;;1.50;70.16;98473.34;6216874;23;19916;-77
2023/02/05 07:34:33;;;;;;;;;;;;;;;1.48;70.07;98479.47;6217528;23;19943;-76
2023/02/05 07:37:00;;;;;;;;;;;;;;;1.47;71.06;98468.34;6228575;23;19958;-76
2023/02/05 07:39:28;;;;;;;;;;;;;;;1.54;70.93;98468.88;6227819;23;19960;-75
2023/02/05 07:41:55;;;;;;;;;;;;;;;1.55;70.52;98466.22;6219958;23;19970;-76
2023/02/05 07:44:23;;;;;;;;;;;;;;;1.55;69.99;98466.22;6216016;23;19935;-76
2023/02/05 07:46:50;;;;;;;;;;;;;;;1.58;70.64;98471.19;6216402;23;19996;-76
2023/02/05 07:49:19;;;;;;;;;;;;;;;1.61;70.77;98462.50;6215740;23;19916;-76
2023/02/05 07:51:47;;;;;;;;;;;;;;;1.60;70.18;98459.09;6218199;23;19923;-76
2023/02/05 07:54:15;;;;;;;;;;;;;;;1.62;71.57;98454.69;6219545;23;19938;-76
2023/02/05 07:56:42;;;;;;;;;;;;;;;1.68;71.20;98450.13;6218405;23;19916;-76
2023/02/05 07:59:10;;;;;;;;;;;;;;;1.71;71.21;98447.41;6216967;23;19915;-76
2023/02/05 08:01:37;;;;;;;;;;;;;;;1.77;72.30;98441.94;6216754;23;20002;-76
2023/02/05 08:04:05;;;;;;;;;;;;;;;1.79;71.31;98434.97;6218453;23;19962;-76
2023/02/05 08:06:35;;;;;;;;;;;;;;;1.81;71.43;98425.41;6217285;23;19916;-76
2023/02/05 08:09:02;;;;;;;;;;;;;;;1.83;72.43;98418.44;6215056;23;19991;-77
2023/02/05 08:11:30;;;;;;;;;;;;;;;1.87;72.19;98426.84;6216200;23;19922;-77
2023/02/05 08:13:59;;;;;;;;;;;;;;;1.90;72.72;98424.09;6215916;23;19916;-79
2023/02/05 08:16:26;;;;;;;;;;;;;;;1.91;72.25;98431.75;6215546;23;19942;-78
2023/02/05 08:18:54;;;;;;;;;;;;;;;1.93;71.10;98429.09;6214445;23;19916;-78
2023/02/05 08:21:21;;;;;;;;;;;;;;;1.91;70.36;98431.75;6214976;23;19971;-77
2023/02/05 08:23:50;;;;;;;;;;;;;;;1.90;70.71;98419.78;6215344;23;19924;-77
2023/02/05 08:26:17;;;;;;;;;;;;;;;1.91;70.47;98421.44;6214950;23;19942;-77
2023/02/05 08:28:45;;;;;;;;;;;;;;;1.94;71.13;98418.69;6214269;23;19915;-77
2023/02/05 08:31:13;;;;;;;;;;;;;;;2.00;71.27;98417.53;6215031;23;19916;-77
2023/02/05 08:33:41;;;;;;;;;;;;;;;2.03;71.00;98430.25;6214770;23;19920;-77
2023/02/05 08:36:09;;;;;;;;;;;;;;;2.05;70.66;98415.53;6214887;23;20344;-78
2023/02/05 08:38:36;;;;;;;;;;;;;;;2.08;71.19;98417.97;6214435;23;19916;-77
2023/02/05 08:41:11;;;;;;;;;;;;;;;2.12;71.43;98413.47;6216295;23;19916;-76
2023/02/05 08:43:40;;;;;;;;;;;;;;;2.18;72.28;98411.38;6215764;23;20307;-77
2023/02/05 08:46:08;;;;;;;;;;;;;;;2.23;72.60;98413.69;6216163;23;19964;-76
2023/02/05 08:48:36;;;;;;;;;;;;;;;2.25;71.18;98420.44;6215828;23;19923;-76
2023/02/05 08:51:03;;;;;;;;;;;;;;;2.24;71.02;98411.03;6215759;23;19916;-77
2023/02/05 08:55:18;;;;;;;10.80;8.02;;;;;;;2.26;71.73;98409.22;5131183;27;20726;-78
2023/02/05 08:57:45;;;;;;;11.35;7.20;;;;;;;2.25;70.86;98399.84;5131150;27;20138;-78
2023/02/05 09:00:14;;;;;;;9.05;7.80;;;;;;;2.26;71.67;98411.78;5131138;28;20047;-78
2023/02/05 09:02:43;;;;;;;11.70;8.13;;;;;;;2.28;72.21;98396.28;5112494;28;20058;-78
2023/02/05 09:05:12;;;;;;;12.43;8.15;;;;;;;2.29;71.67;98390.19;5112010;28;20054;-79
2023/02/05 09:07:40;;;;;;;13.18;8.63;;;;;;;2.27;71.28;98386.88;5115538;28;20046;-79
2023/02/05 09:10:10;;;;;;;13.63;9.00;;;;;;;2.28;71.59;98387.72;5110702;28;20051;-79
2023/02/05 09:12:40;;;;;;;15.38;9.73;;;;;;;2.27;70.74;98376.56;5090700;28;20143;-78
2023/02/05 09:15:08;;;;;;;13.80;9.07;;;;;;;2.29;70.42;98364.44;5091854;28;20055;-78
2023/02/05 09:17:36;;;;;;;12.52;8.70;;;;;;;2.25;70.04;98357.78;5091087;28;20127;-78
2023/02/05 09:20:05;;;;;;;11.45;8.07;;;;;;;2.23;70.22;98355.31;5107378;28;20048;-78
2023/02/05 09:22:33;;;;;;;12.38;8.73;;;;;;;2.27;71.28;98340.50;5130608;28;20069;-78
2023/02/05 09:25:00;;;;;;;15.18;10.15;;;;;;;2.30;72.32;98345.50;5127143;28;20079;-78
2023/02/05 09:27:29;;;;;;;12.85;8.60;;;;;;;2.31;71.03;98352.31;5124128;27;20126;-78
2023/02/05 09:29:58;;;;;;;13.35;9.52;;;;;;;2.34;71.52;98347.00;5131055;28;20090;-78
2023/02/05 09:32:26;;;;;;;28.25;17.63;;;;;;;2.35;71.89;98348.66;5130740;28;20096;-78
2023/02/05 09:34:53;;;;;;;18.25;12.25;;;;;;;2.40;72.63;98351.78;5130872;28;20049;-78
2023/02/05 09:37:21;;;;;;;13.02;10.00;;;;;;;2.40;71.57;98341.47;5131077;28;20054;-78
2023/02/05 09:39:49;;;;;;;11.85;8.57;;;;;;;2.38;71.25;98348.47;5118335;27;20074;-78
2023/02/05 09:42:44;;;;;;;11.68;8.35;;;;;;;2.37;70.27;98357.13;5110603;28;20050;-78
2023/02/05 09:45:32;;;;;;;13.38;9.70;;;;;;;2.36;70.62;98350.31;5110696;28;20450;-78
2023/02/05 09:48:13;;;;;;;12.07;8.43;;;;;;;2.37;70.57;98351.97;5110289;28;20079;-78
2023/02/05 09:50:42;;;;;;;13.65;8.65;;;;;;;2.40;71.51;98356.94;5098848;28;20055;-77
2023/02/05 09:53:18;;;;;;;16.40;9.85;;;;;;;2.41;69.69;98353.44;5110988;28;20054;-78
2023/02/05 09:55:47;;;;;;;13.82;10.70;;;;;;;2.41;70.79;98344.91;5130422;27;20074;-79
2023/02/05 09:58:17;;;;;;;15.07;9.10;;;;;;;2.41;70.32;98335.44;5128891;27;20043;-78
2023/02/05 10:00:49;;;;;;;10.25;8.40;;;;;;;2.45;71.17;98336.09;5124048;27;20181;-78
2023/02/05 10:03:24;;;;;;;14.52;9.80;;;;;;;2.47;70.64;98332.50;5121168;27;20082;-78
2023/02/05 10:06:07;;;;;;;14.57;8.77;;;;;;;2.48;70.07;98333.31;5114493;28;20054;-78
2023/02/05 10:08:40;;;;;;;9.48;8.40;;;;;;;2.48;69.97;98336.72;5095918;28;20044;-78
2023/02/05 10:11:17;;;;;;;12.02;9.18;;;;;;;2.46;71.65;98338.56;5096571;28;20044;-79
2023/02/05 10:13:48;;;;;;;15.77;10.05;;;;;;;2.44;70.76;98332.66;5097450;28;20121;-80
2023/02/05 10:16:56;;;;;;;10.50;8.18;;;;;;;2.44;69.50;98321.53;5108069;28;20058;-79
2023/02/05 10:19:46;;;;;;;14.52;9.93;;;;;;;2.44;69.63;98317.22;5093793;28;20391;-78
2023/02/05 10:22:21;;;;;;;15.50;11.25;;;;;;;2.48;71.62;98323.84;5098822;28;20055;-79
2023/02/05 10:25:03;;;;;;;15.13;10.20;;;;;;;2.51;70.87;98307.38;5096777;28;20421;-78
2023/02/05 10:27:38;;;;;;;13.70;10.75;;;;;;;2.53;72.70;98300.38;5114269;28;20126;-79
2023/02/05 10:30:15;;;;;;;13.63;9.85;;;;;;;2.56;71.08;98299.38;5114804;28;20135;-78
2023/02/05 10:32:55;;;;;;;12.30;9.38;;;;;;;2.56;70.60;98294.22;5097598;28;20551;-78
2023/02/05 10:35:26;;;;;;;15.23;10.68;;;;;;;2.56;71.01;98296.78;5112680;28;20050;-78
2023/02/05 10:37:56;;;;;;;12.63;10.10;;;;;;;2.56;70.85;98291.66;5095259;28;20135;-77
2023/02/05 10:40:28;;;;;;;11.13;9.25;;;;;;;2.57;71.19;98291.56;5106652;28;20048;-78
2023/02/05 10:43:01;;;;;;;12.93;9.63;;;;;;;2.60;71.49;98293.13;5116147;28;20134;-77
2023/02/05 10:45:30;;;;;;;15.07;10.05;;;;;;;2.64;71.43;98286.88;5106165;28;20132;-78
2023/02/05 10:48:31;;;;;;;12.25;9.30;;;;;;;2.67;71.29;98291.88;5106187;28;20044;-77
2023/02/05 10:51:02;;;;;;;13.68;9.45;;;;;;;2.70;71.31;98285.69;5097858;28;20058;-77
2023/02/05 10:53:31;;;;;;;14.27;10.18;;;;;;;2.71;71.84;98288.16;5115436;28;20094;-77
2023/02/05 10:56:01;;;;;;;15.57;9.65;;;;;;;2.77;71.83;98289.56;5114698;28;20050;-78
2023/02/05 10:58:38;;;;;;;12.45;9.63;;;;;;;2.80;72.09;98290.22;5115157;28;20146;-77
2023/02/05 11:01:06;;;;;;;12.75;9.43;;;;;;;2.83;72.54;98286.63;5103027;28;20062;-77
2023/02/05 11:03:35;;;;;;;12.65;10.05;;;;;;;2.88;73.57;98289.75;5101136;28;20450;-76
2023/02/05 11:06:08;;;;;;;14.63;10.20;;;;;;;2.87;73.26;98288.09;5095647;28;20040;-77
2023/02/05 11:08:38;;;;;;;14.80;9.63;;;;;;;2.85;73.42;98283.03;5098641;28;20519;-77
2023/02/05 11:11:07;;;;;;;17.25;11.55;;;;;;;2.88;73.99;98282.00;5096480;28;20048;-77
2023/02/05 11:13:41;;;;;;;14.93;11.68;;;;;;;2.87;73.72;98281.19;5095117;28;20076;-77
2023/02/05 11:16:09;;;;;;;14.57;10.63;;;;;;;2.88;73.50;98279.44;5104386;28;20051;-77
2023/02/05 11:18:42;;;;;;;16.02;11.45;;;;;;;2.87;73.74;98281.19;5103613;28;20135;-76
2023/02/05 11:21:10;;;;;;;;;;;;;;;2.93;74.60;98276.56;5095606;28;20054;-76
2023/02/05 11:23:39;;;;;;;14.02;9.88;;;;;;;2.94;74.45;98267.94;5095958;28;19920;-77
2023/02/05 11:26:10;;;;;;;14.38;11.77;;;;;;;2.98;75.26;98267.66;5094674;28;20138;-77
2023/02/05 11:28:39;;;;;;;18.65;12.30;;;;;;;3.02;75.92;98274.28;5103020;28;20122;-77
2023/02/05 11:31:24;;;;;;;17.77;11.23;;;;;;;3.06;76.04;98273.19;5106777;28;20048;-77
2023/02/05 11:34:10;;;;;;;14.68;11.00;;;;;;;3.06;75.94;98267.19;5104226;28;20047;-77
2023/02/05 11:36:47;;;;;;;17.13;10.93;;;;;;;3.02;75.19;98273.47;5104916;27;20047;-76
2023/02/05 11:39:40;;;;;;;14.20;10.05;;;;;;;2.95;75.22;98264.44;5105833;28;20076;-77
2023/02/05 11:42:10;;;;;;;18.23;10.95;;;;;;;2.96;75.25;98258.38;5098351;28;20057;-77
2023/02/05 11:44:47;;;;;;;13.25;9.90;;;;;;;2.98;76.15;98248.78;5119115;28;20053;-77
2023/02/05 11:47:25;;;;;;;19.60;13.07;;;;;;;2.96;75.31;98242.91;5136464;28;20051;-77
2023/02/05 11:49:55;;;;;;;17.33;13.35;;;;;;;2.91;75.73;98235.44;5124162;28;20142;-78
2023/02/05 11:52:27;;;;;;;17.60;12.75;;;;;;;2.89;75.84;98234.72;5104544;28;20121;-77
2023/02/05 11:54:55;;;;;;;18.70;12.40;;;;;;;2.91;76.04;98232.03;5095337;28;20083;-77
2023/02/05 11:57:32;;;;;;;18.77;11.93;;;;;;;2.93;76.53;98227.59;5094208;28;20051;-77
2023/02/05 12:00:02;;;;;;;16.23;11.65;;;;;;;2.94;76.47;98231.84;5091766;28;20557;-77
2023/02/05 12:02:35;;;;;;;15.00;12.15;;;;;;;2.97;76.56;98235.06;5090874;28;20757;-77
2023/02/05 12:05:12;;;;;;;17.80;12.27;;;;;;;3.00;76.04;98234.06;5095022;28;20059;-77
2023/02/05 12:07:44;;;;;;;17.23;12.85;;;;;;;3.04;77.01;98227.78;5094488;28;20126;-77
2023/02/05 12:10:17;;;;;;;15.98;12.02;;;;;;;3.09;77.11;98225.75;5093217;28;20055;-77
2023/02/05 12:12:51;;;;;;;16.13;13.15;;;;;;;3.08;77.40;98222.34;5103631;28;20060;-77
2023/02/05 12:15:24;;;;;;;18.33;13.00;;;;;;;3.09;76.74;98220.59;5118106;28;20135;-77
2023/02/05 12:18:01;;;;;;;16.75;12.60;;;;;;;3.06;76.55;98215.63;5096814;28;20076;-77
2023/02/05 12:20:33;;;;;;;13.88;11.70;;;;;;;3.07;76.61;98204.41;5094490;28;20058;-77
2023/02/05 12:23:40;;;;;;;22.73;15.85;;;;;;;2.99;75.96;98199.69;5094581;28;20047;-77
2023/02/05 12:26:26;;;;;;;21.30;14.63;;;;;;;2.93;76.32;98183.78;5080691;28;20044;-78
2023/02/05 12:29:07;;;;;;;22.83;13.90;;;;;;;2.91;76.51;98186.47;5104314;28;20056;-78
2023/02/05 12:31:52;;;;;;;19.40;12.43;;;;;;;2.92;76.73;98182.16;5114677;28;20107;-77
2023/02/05 12:34:28;;;;;;;21.67;15.63;;;;;;;2.94;76.76;98175.16;5113243;28;20048;-77
2023/02/05 12:37:19;;;;;;;18.85;14.48;;;;;;;2.95;76.90;98179.38;5134595;22;20485;-87
2023/02/05 12:39:52;;;;;;;16.80;11.88;;;;;;;3.00;76.54;98179.94;5081534;28;20421;-86
2023/02/05 12:42:31;;;;;;;17.00;12.75;;;;;;;3.01;76.17;98181.56;5082018;28;20052;-86
2023/02/05 12:45:24;;;;;;;17.35;11.85;;;;;;;3.00;76.79;98175.59;5081854;28;20449;-91
2023/02/05 12:48:01;;;;;;;;;;;;;;;3.04;76.65;98176.22;5082890;28;20098;-87
2023/02/05 12:50:46;;;;;;;15.10;11.43;;;;;;;3.05;77.09;98173.53;5091280;28;19987;-87
2023/02/05 12:53:38;;;;;;;18.58;12.77;;;;;;;3.06;76.94;98174.38;5092408;28;20044;-90